Caribe Navigator — V2PW6 — position and weather

sailwx.info

Track history (hours):
 
Tides and Currents Weather Stations Pressure Air Temp Water Temp Dewpoint Dewpoint Depression Visibility Wind Speed Wind Dir Waves Ship Positions

Caribe Navigator

Last reported at 2016-Aug-24 09:32 UTC. Time now 2016-Aug-24 10:17 UTC.
Position N 26°07' W 080°05'.

Length 100 m; draft 5.2 m.

Type: Cargo ship. MMSI: 305289000.

Date/timePositionNaut miles runAvg speedWind from/ knotsBaromVisibWave heightAir tempDewpointWater temp
2016-Aug-24 09:32N 26°07' W 080°05'0 0.0
2016-Aug-24 08:29N 26°07' W 080°05'0 0.0
2016-Aug-24 07:32N 26°07' W 080°05'0 0.0
2016-Aug-24 06:32N 26°07' W 080°05'0 0.0
2016-Aug-24 04:32N 26°07' W 080°05'0 0.0
2016-Aug-24 03:32N 26°07' W 080°05'0 0.0
2016-Aug-24 02:31N 26°07' W 080°05'0 0.0
2016-Aug-24 01:31N 26°07' W 080°05'0 0.0
2016-Aug-24 00:31N 26°07' W 080°05'0 0.0
2016-Aug-23 23:31N 26°07' W 080°05'8 7.8
2016-Aug-23 22:33N 25°60' W 080°04'1414.1
2016-Aug-23 21:33N 25°46' W 080°05'4 4.5
2016-Aug-23 20:33N 25°46' W 080°10'0 0.0
2016-Aug-23 19:33N 25°46' W 080°10'0 0.0
2016-Aug-23 18:33N 25°46' W 080°10'0 0.0
2016-Aug-23 17:33N 25°46' W 080°10'0 0.0
2016-Aug-23 16:33N 25°46' W 080°10'0 0.0
2016-Aug-23 15:33N 25°46' W 080°10'0 0.0
2016-Aug-23 14:30N 25°46' W 080°10'0 0.0
2016-Aug-23 13:33N 25°46' W 080°10'0 0.0
2016-Aug-23 12:33N 25°46' W 080°10'0 0.0
2016-Aug-23 11:33N 25°46' W 080°10'0 0.2
2016-Aug-23 10:33N 25°46' W 080°10'9 9.3
2016-Aug-23 09:33N 25°43' W 080°00'  
2016-Aug-18 22:33N 25°27' W 080°01'1111.1
2016-Aug-18 21:34N 25°38' W 080°02'1110.8
2016-Aug-18 20:33N 25°49' W 080°03'1110.5
2016-Aug-18 19:33N 25°60' W 080°04'7 6.3
2016-Aug-18 18:30N 26°05' W 080°07'0 0.0
2016-Aug-18 17:30N 26°05' W 080°07'0 0.0
2016-Aug-18 16:33N 26°05' W 080°07'0 0.0
2016-Aug-18 15:33N 26°05' W 080°07'0 0.0
2016-Aug-18 14:33N 26°05' W 080°07'0 0.0
2016-Aug-18 13:33N 26°05' W 080°07'0 0.0
2016-Aug-18 12:33N 26°05' W 080°07'0 0.0
2016-Aug-18 11:33N 26°05' W 080°07'0 0.0
2016-Aug-18 10:33N 26°05' W 080°07'0 0.0
2016-Aug-18 09:33N 26°05' W 080°07'0 0.0
2016-Aug-18 08:21N 26°05' W 080°07'0 0.0
2016-Aug-18 07:33N 26°05' W 080°07'0 0.0
2016-Aug-18 06:33N 26°05' W 080°07'0 0.0
2016-Aug-18 05:33N 26°05' W 080°07'0 0.0
2016-Aug-18 04:33N 26°05' W 080°07'0 0.0
2016-Aug-18 03:24N 26°05' W 080°07'0 0.0
2016-Aug-18 02:24N 26°05' W 080°07'0 0.0
2016-Aug-18 01:27N 26°05' W 080°07'0 0.0
2016-Aug-18 00:27N 26°05' W 080°07'0 0.0
2016-Aug-17 23:27N 26°05' W 080°07'0 0.0
2016-Aug-17 22:27N 26°05' W 080°07'0 0.1
2016-Aug-17 21:27N 26°05' W 080°07'0 0.0
2016-Aug-17 20:30N 26°05' W 080°07'0 0.0
2016-Aug-17 19:30N 26°05' W 080°07'0 0.0
2016-Aug-17 18:30N 26°05' W 080°07'0 0.0
2016-Aug-17 17:30N 26°05' W 080°07'0 0.0
2016-Aug-17 16:30N 26°05' W 080°07'0 0.0
2016-Aug-17 15:33N 26°05' W 080°07'0 0.0
2016-Aug-17 14:30N 26°05' W 080°07'0 0.0
2016-Aug-17 13:33N 26°05' W 080°07'0 0.0
2016-Aug-17 12:33N 26°05' W 080°07'0 0.0
2016-Aug-17 11:33N 26°05' W 080°07'0 0.0
2016-Aug-17 10:33N 26°05' W 080°07'0 0.0
2016-Aug-17 09:32N 26°05' W 080°07'0 0.0
2016-Aug-17 08:32N 26°05' W 080°07'0 0.0
2016-Aug-17 07:32N 26°05' W 080°07'0 0.0
2016-Aug-17 06:32N 26°05' W 080°07'0 0.0
2016-Aug-17 05:32N 26°05' W 080°07'0 0.0
2016-Aug-17 04:23N 26°05' W 080°07'0 0.0
2016-Aug-17 03:32N 26°05' W 080°07'0 0.0
2016-Aug-17 02:23N 26°05' W 080°07'0 0.0
2016-Aug-17 01:23N 26°05' W 080°07'0 0.0
2016-Aug-17 00:26N 26°05' W 080°07'2 2.3
2016-Aug-16 23:33N 26°05' W 080°05'1010.1
2016-Aug-16 22:33N 25°55' W 080°03'11 0.9
2016-Aug-16 10:29N 25°46' W 080°10'9 9.6
2016-Aug-16 09:33N 25°43' W 080°01'  
Track history (hours):
 
Tides and Currents Weather Stations Pressure Air Temp Water Temp Dewpoint Dewpoint Depression Visibility Wind Speed Wind Dir Waves Ship Positions

Caribe Navigator

Last reported at 2016-Aug-24 09:32 UTC. Time now 2016-Aug-24 10:17 UTC.
Position N 26°07' W 080°05'.

Length 100 m; draft 5.2 m.

Type: Cargo ship. MMSI: 305289000.

Date/timePositionNaut miles runAvg speedWind from/ knotsBaromVisibWave heightAir tempDewpointWater temp
2016-Aug-24 09:32N 26°07' W 080°05'0 0.0
2016-Aug-24 08:29N 26°07' W 080°05'0 0.0
2016-Aug-24 07:32N 26°07' W 080°05'0 0.0
2016-Aug-24 06:32N 26°07' W 080°05'0 0.0
2016-Aug-24 04:32N 26°07' W 080°05'0 0.0
2016-Aug-24 03:32N 26°07' W 080°05'0 0.0
2016-Aug-24 02:31N 26°07' W 080°05'0 0.0
2016-Aug-24 01:31N 26°07' W 080°05'0 0.0
2016-Aug-24 00:31N 26°07' W 080°05'0 0.0
2016-Aug-23 23:31N 26°07' W 080°05'8 7.8
2016-Aug-23 22:33N 25°60' W 080°04'1414.1
2016-Aug-23 21:33N 25°46' W 080°05'4 4.5
2016-Aug-23 20:33N 25°46' W 080°10'0 0.0
2016-Aug-23 19:33N 25°46' W 080°10'0 0.0
2016-Aug-23 18:33N 25°46' W 080°10'0 0.0
2016-Aug-23 17:33N 25°46' W 080°10'0 0.0
2016-Aug-23 16:33N 25°46' W 080°10'0 0.0
2016-Aug-23 15:33N 25°46' W 080°10'0 0.0
2016-Aug-23 14:30N 25°46' W 080°10'0 0.0
2016-Aug-23 13:33N 25°46' W 080°10'0 0.0
2016-Aug-23 12:33N 25°46' W 080°10'0 0.0
2016-Aug-23 11:33N 25°46' W 080°10'0 0.2
2016-Aug-23 10:33N 25°46' W 080°10'9 9.3
2016-Aug-23 09:33N 25°43' W 080°00'  
2016-Aug-18 22:33N 25°27' W 080°01'1111.1
2016-Aug-18 21:34N 25°38' W 080°02'1110.8
2016-Aug-18 20:33N 25°49' W 080°03'1110.5
2016-Aug-18 19:33N 25°60' W 080°04'7 6.3
2016-Aug-18 18:30N 26°05' W 080°07'0 0.0
2016-Aug-18 17:30N 26°05' W 080°07'0 0.0
2016-Aug-18 16:33N 26°05' W 080°07'0 0.0
2016-Aug-18 15:33N 26°05' W 080°07'0 0.0
2016-Aug-18 14:33N 26°05' W 080°07'0 0.0
2016-Aug-18 13:33N 26°05' W 080°07'0 0.0
2016-Aug-18 12:33N 26°05' W 080°07'0 0.0
2016-Aug-18 11:33N 26°05' W 080°07'0 0.0
2016-Aug-18 10:33N 26°05' W 080°07'0 0.0
2016-Aug-18 09:33N 26°05' W 080°07'0 0.0
2016-Aug-18 08:21N 26°05' W 080°07'0 0.0
2016-Aug-18 07:33N 26°05' W 080°07'0 0.0
2016-Aug-18 06:33N 26°05' W 080°07'0 0.0
2016-Aug-18 05:33N 26°05' W 080°07'0 0.0
2016-Aug-18 04:33N 26°05' W 080°07'0 0.0
2016-Aug-18 03:24N 26°05' W 080°07'0 0.0
2016-Aug-18 02:24N 26°05' W 080°07'0 0.0
2016-Aug-18 01:27N 26°05' W 080°07'0 0.0
2016-Aug-18 00:27N 26°05' W 080°07'0 0.0
2016-Aug-17 23:27N 26°05' W 080°07'0 0.0
2016-Aug-17 22:27N 26°05' W 080°07'0 0.1
2016-Aug-17 21:27N 26°05' W 080°07'0 0.0
2016-Aug-17 20:30N 26°05' W 080°07'0 0.0
2016-Aug-17 19:30N 26°05' W 080°07'0 0.0
2016-Aug-17 18:30N 26°05' W 080°07'0 0.0
2016-Aug-17 17:30N 26°05' W 080°07'0 0.0
2016-Aug-17 16:30N 26°05' W 080°07'0 0.0
2016-Aug-17 15:33N 26°05' W 080°07'0 0.0
2016-Aug-17 14:30N 26°05' W 080°07'0 0.0
2016-Aug-17 13:33N 26°05' W 080°07'0 0.0
2016-Aug-17 12:33N 26°05' W 080°07'0 0.0
2016-Aug-17 11:33N 26°05' W 080°07'0 0.0
2016-Aug-17 10:33N 26°05' W 080°07'0 0.0
2016-Aug-17 09:32N 26°05' W 080°07'0 0.0
2016-Aug-17 08:32N 26°05' W 080°07'0 0.0
2016-Aug-17 07:32N 26°05' W 080°07'0 0.0
2016-Aug-17 06:32N 26°05' W 080°07'0 0.0
2016-Aug-17 05:32N 26°05' W 080°07'0 0.0
2016-Aug-17 04:23N 26°05' W 080°07'0 0.0
2016-Aug-17 03:32N 26°05' W 080°07'0 0.0
2016-Aug-17 02:23N 26°05' W 080°07'0 0.0
2016-Aug-17 01:23N 26°05' W 080°07'0 0.0
2016-Aug-17 00:26N 26°05' W 080°07'2 2.3
2016-Aug-16 23:33N 26°05' W 080°05'1010.1
2016-Aug-16 22:33N 25°55' W 080°03'11 0.9
2016-Aug-16 10:29N 25°46' W 080°10'9 9.6
2016-Aug-16 09:33N 25°43' W 080°01'  

Dump ship's entire track history